1tpe.com alexa rank chart, 1tpe.com alexa rank daily changes

1tpe.com alexa rank chart, 1tpe.com alexa rank daily changes

1tpe.com
Actual rank:
273 135

RANK HISTORY

Date Rank Diff
2018/02/18 273 135 +14 459
2018/02/17 258 676 +58 525
2018/02/16 200 151 +31 012
2018/02/15 169 139 -43 019
2018/02/13 212 158 -45 340
2018/02/12 257 498 -13 818
2018/02/11 271 316 -36 477
2018/02/10 307 793 +152 149
2018/02/08 155 644 -6 515
2018/02/07 162 159 -14 217
2018/02/04 176 376 -116 761
2018/02/03 293 137 -98 005
2018/02/02 391 142 +252 771
2018/02/01 138 371 -24 730
2018/01/31 163 101 -48 065
2018/01/30 211 166 +2 218
2018/01/29 208 948 +5 870
2018/01/28 203 078 -4 690
2018/01/27 207 768 -932
2018/01/26 208 700 +4 098
2018/01/25 204 602 +1 776
2018/01/24 202 826 -5 060
2018/01/23 207 886 -4 248
2018/01/22 212 134 -4 531
2018/01/21 216 665 -1 209
2018/01/20 217 874 +3 903
2018/01/19 213 971 -5 708
2018/01/18 219 679 -6 931
2018/01/17 226 610 +1 657
2018/01/16 224 953 -696
2018/01/15 225 649 -15 532
2018/01/14 241 181 -3 609
2018/01/13 244 790 +1 839
2018/01/12 242 951 -1 062
2018/01/11 244 013 -3 497
2018/01/10 247 510 +4 061
2018/01/09 243 449 -12 880
2018/01/08 256 329 -281
2018/01/07 256 610 +13 171
2018/01/06 243 439 +956
2018/01/05 242 483 +3 770
2018/01/04 238 713 -10 998
2018/01/03 249 711 -158
2018/01/02 249 869 +4 018
2018/01/01 245 851 -10 917
2017/12/31 256 768 +2 309
2017/12/30 254 459 -3 917
2017/12/29 258 376 -1 726
2017/12/28 260 102 -7 996
2017/12/27 268 098 +7 788
2017/12/26 260 310 +3 550
2017/12/25 256 760 -1 613
2017/12/24 258 373 +5 404
2017/12/23 252 969 +15 380
2017/12/22 237 589 +4 317
2017/12/21 233 272 +5 634
2017/12/20 227 638

WIDGET FOR YOUR SITE

DOMAINS WITH THE NEAREST RANK

Domain Rank
endesa.es 273 130
fleeq.io 273 131
trisocial.com 273 132
rokycany.cz 273 133
actuconakry.com 273 134
1tpe.com 273 135
mywordtemplates.org 273 136
rosalind.info 273 137
marathonia.com 273 138
drleaf.com 273 139
agea.com.ar 273 140

DOMAINS WITH THE NEAREST RANK BY TLD .com

Domain Rank
ttisurvey.com 273 125
princexml.com 273 126
extremebukkake.com 273 128
trisocial.com 273 132
actuconakry.com 273 134
1tpe.com 273 135
marathonia.com 273 138
drleaf.com 273 139
corrienteshoy.com 273 143
plataforma10.com 273 145
biologia-geologia.com 273 148